createdAt,value
2023-05-10T00:01:59.513Z,9.14
2023-05-10T00:05:02.823Z,9.02
2023-05-10T00:08:05.790Z,9.15
2023-05-10T00:11:08.518Z,9.02
2023-05-10T00:14:12.685Z,9.03
2023-05-10T00:17:15.724Z,9.04
2023-05-10T00:20:18.834Z,9.03
2023-05-10T00:23:21.870Z,9.09
2023-05-10T00:26:24.625Z,9.05
2023-05-10T00:29:30.507Z,9.00
2023-05-10T00:32:33.363Z,8.97
2023-05-10T00:35:36.211Z,8.93
2023-05-10T00:38:39.192Z,8.90
2023-05-10T00:41:41.930Z,8.90
2023-05-10T00:44:44.785Z,8.91
2023-05-10T00:47:47.805Z,8.90
2023-05-10T00:50:50.806Z,8.84
2023-05-10T00:53:55.072Z,8.74
2023-05-10T00:56:58.485Z,8.65
2023-05-10T01:00:02.516Z,8.67
2023-05-10T01:03:06.632Z,8.62
2023-05-10T01:06:11.046Z,8.67
2023-05-10T01:09:13.860Z,8.62
2023-05-10T01:12:16.688Z,8.52
2023-05-10T01:15:21.378Z,8.54
2023-05-10T01:18:25.804Z,8.53
2023-05-10T01:21:50.971Z,8.50
2023-05-10T01:25:09.161Z,8.50
2023-05-10T01:28:28.288Z,8.37
2023-05-10T01:32:15.918Z,8.37
2023-05-10T01:35:41.256Z,8.40
2023-05-10T01:38:51.578Z,8.33
2023-05-10T01:42:04.606Z,8.32
2023-05-10T01:45:13.141Z,8.32
2023-05-10T01:48:16.347Z,8.25
2023-05-10T01:51:25.005Z,8.08
2023-05-10T01:54:30.021Z,8.14
2023-05-10T01:57:36.186Z,8.08
2023-05-10T02:00:44.087Z,8.11
2023-05-10T02:03:48.888Z,7.94
2023-05-10T02:06:54.073Z,7.85
2023-05-10T02:09:56.863Z,7.74
2023-05-10T02:13:01.745Z,7.58
2023-05-10T02:16:06.597Z,7.62
2023-05-10T02:19:11.564Z,7.64
2023-05-10T02:22:16.512Z,7.75
2023-05-10T02:25:22.063Z,7.63
2023-05-10T02:28:27.246Z,7.73
2023-05-10T02:31:33.262Z,7.73
2023-05-10T02:34:36.496Z,7.60
2023-05-10T02:37:40.945Z,7.54
2023-05-10T02:40:45.666Z,7.40
2023-05-10T02:43:50.774Z,7.39
2023-05-10T02:46:53.982Z,7.32
2023-05-10T02:49:58.419Z,7.25
2023-05-10T02:53:05.593Z,7.24
2023-05-10T02:56:18.448Z,7.10
2023-05-10T02:59:21.468Z,7.16
2023-05-10T03:02:24.326Z,7.20
2023-05-10T03:05:27.084Z,7.29
2023-05-10T03:08:30.582Z,7.36
2023-05-10T03:12:03.959Z,7.37
2023-05-10T03:15:15.548Z,7.45
2023-05-10T03:18:24.463Z,7.50
2023-05-10T03:21:31.093Z,7.56
2023-05-10T03:24:36.469Z,7.58
2023-05-10T03:27:43.970Z,7.65
2023-05-10T03:30:47.389Z,7.74
2023-05-10T03:33:51.397Z,7.80
2023-05-10T03:36:59.870Z,7.84
2023-05-10T03:40:07.603Z,7.93
2023-05-10T03:43:12.665Z,7.94
2023-05-10T03:46:15.485Z,7.99
2023-05-10T03:49:18.663Z,8.02
2023-05-10T03:52:21.846Z,8.11
2023-05-10T03:55:24.996Z,8.17
2023-05-10T03:58:27.912Z,8.24
2023-05-10T04:01:30.727Z,8.25
2023-05-10T04:04:33.666Z,8.31
2023-05-10T04:07:36.370Z,8.41
2023-05-10T04:10:39.131Z,8.51
2023-05-10T04:13:41.937Z,8.61
2023-05-10T04:16:44.690Z,8.62
2023-05-10T04:19:47.440Z,8.76
2023-05-10T04:22:50.182Z,8.86
2023-05-10T04:25:53.009Z,8.99
2023-05-10T04:28:55.789Z,9.10
2023-05-10T04:31:58.904Z,9.16
2023-05-10T04:35:04.067Z,9.22
2023-05-10T04:38:06.788Z,9.24
2023-05-10T04:41:11.175Z,9.38
2023-05-10T04:44:13.933Z,9.48
2023-05-10T04:47:17.461Z,9.57
2023-05-10T04:50:20.723Z,9.60
2023-05-10T04:53:24.035Z,9.62
2023-05-10T04:56:26.779Z,9.67
2023-05-10T04:59:29.571Z,9.80
2023-05-10T05:02:32.431Z,9.79
2023-05-10T05:05:35.829Z,9.83
2023-05-10T05:08:38.628Z,9.96
2023-05-10T05:11:41.533Z,10.05
2023-05-10T05:14:47.070Z,10.21
2023-05-10T05:17:49.871Z,10.28
2023-05-10T05:20:52.737Z,10.46
2023-05-10T05:23:55.715Z,10.46
2023-05-10T05:26:58.404Z,10.58
2023-05-10T05:33:04.144Z,10.78
2023-05-10T05:36:07.423Z,10.99
2023-05-10T05:39:10.322Z,10.97
2023-05-10T05:42:14.392Z,11.16
2023-05-10T05:45:17.578Z,11.32
2023-05-10T05:48:21.261Z,11.42
2023-05-10T05:51:24.287Z,11.56
2023-05-10T05:54:28.348Z,11.49
2023-05-10T05:57:31.355Z,11.76
2023-05-10T06:00:34.195Z,11.85
2023-05-10T06:03:37.238Z,11.94
2023-05-10T06:06:40.267Z,11.96
2023-05-10T06:09:43.227Z,12.11
2023-05-10T06:12:46.243Z,12.27
2023-05-10T06:15:49.255Z,12.26
2023-05-10T06:18:52.268Z,12.31
2023-05-10T06:21:55.030Z,12.33
2023-05-10T06:24:57.914Z,12.49
2023-05-10T06:28:01.106Z,12.64
2023-05-10T06:31:06.124Z,12.90
2023-05-10T06:34:09.335Z,12.98
2023-05-10T06:37:13.578Z,13.22
2023-05-10T06:40:19.702Z,13.36
2023-05-10T06:43:23.840Z,13.37
2023-05-10T06:46:27.034Z,13.55
2023-05-10T06:49:29.872Z,13.70
2023-05-10T06:52:32.867Z,14.01
2023-05-10T06:55:55.739Z,14.00
2023-05-10T06:58:59.148Z,14.09
2023-05-10T07:02:02.088Z,14.14
2023-05-10T07:05:05.682Z,14.30
2023-05-10T07:08:09.522Z,14.36
2023-05-10T07:11:12.681Z,14.75
2023-05-10T07:14:15.608Z,14.70
2023-05-10T07:17:18.575Z,15.21
2023-05-10T07:20:22.731Z,15.13
2023-05-10T07:23:25.872Z,15.31
2023-05-10T07:26:29.572Z,15.45
2023-05-10T07:29:32.576Z,15.41
2023-05-10T07:32:35.608Z,15.46
2023-05-10T07:35:39.013Z,15.74
2023-05-10T07:38:42.359Z,15.92
2023-05-10T07:41:45.251Z,15.78
2023-05-10T07:44:48.333Z,15.87
2023-05-10T07:47:52.683Z,16.37
2023-05-10T07:50:55.645Z,16.29
2023-05-10T07:53:59.141Z,16.55
2023-05-10T07:57:02.721Z,16.60
2023-05-10T08:00:06.659Z,16.91
2023-05-10T08:03:16.298Z,16.72
2023-05-10T08:06:20.800Z,16.71
2023-05-10T08:09:25.363Z,16.94
2023-05-10T08:12:28.414Z,16.88
2023-05-10T08:15:31.246Z,16.73
2023-05-10T08:18:35.003Z,16.79
2023-05-10T08:21:39.584Z,16.63
2023-05-10T08:24:43.119Z,17.23
2023-05-10T08:27:45.987Z,17.22
2023-05-10T08:30:51.319Z,17.40
2023-05-10T08:33:54.435Z,17.90
2023-05-10T08:36:57.241Z,16.79
2023-05-10T08:40:00.119Z,17.40
2023-05-10T08:43:08.388Z,17.85
2023-05-10T08:46:11.888Z,17.55
2023-05-10T08:49:21.261Z,17.50
2023-05-10T08:52:27.238Z,17.57
2023-05-10T08:55:30.008Z,17.37
2023-05-10T08:58:33.239Z,17.56
2023-05-10T09:01:37.907Z,18.01
2023-05-10T09:04:40.877Z,17.81
2023-05-10T09:07:43.640Z,18.02
2023-05-10T09:10:50.439Z,17.81
2023-05-10T09:13:53.745Z,18.69
2023-05-10T09:16:57.464Z,18.53
2023-05-10T09:20:09.184Z,17.62
2023-05-10T09:23:12.072Z,17.76
2023-05-10T09:26:14.907Z,17.92
2023-05-10T09:29:18.209Z,17.22
2023-05-10T09:32:21.211Z,17.27
2023-05-10T09:35:29.632Z,17.12
2023-05-10T09:38:46.427Z,16.87
2023-05-10T09:41:49.494Z,17.47
2023-05-10T09:44:52.191Z,17.76
2023-05-10T09:47:55.389Z,18.19
2023-05-10T09:50:59.405Z,17.80
2023-05-10T09:54:15.948Z,17.64
2023-05-10T09:57:23.198Z,17.52
2023-05-10T10:00:28.445Z,18.13
2023-05-10T10:03:31.399Z,17.74
2023-05-10T10:06:41.068Z,17.96
2023-05-10T10:09:43.857Z,18.54
2023-05-10T10:12:46.660Z,18.31
2023-05-10T10:15:52.361Z,19.03
2023-05-10T10:18:55.528Z,19.20
2023-05-10T10:21:58.363Z,19.33
2023-05-10T10:25:01.654Z,19.10
2023-05-10T10:28:33.567Z,18.87
2023-05-10T10:32:11.302Z,18.73
2023-05-10T10:35:17.190Z,19.05
2023-05-10T10:38:20.184Z,19.00
2023-05-10T10:41:37.230Z,18.31
2023-05-10T10:44:40.372Z,18.40
2023-05-10T10:47:44.673Z,18.13
2023-05-10T10:50:47.871Z,18.80
2023-05-10T10:53:50.688Z,18.84
2023-05-10T10:57:13.480Z,18.22
2023-05-10T11:00:28.510Z,18.58
2023-05-10T11:03:31.330Z,18.55
2023-05-10T11:06:35.950Z,19.34
2023-05-10T11:09:41.720Z,18.47
2023-05-10T11:12:55.265Z,18.32
2023-05-10T11:15:59.942Z,19.26
2023-05-10T11:19:04.067Z,19.06
2023-05-10T11:22:06.900Z,18.80
2023-05-10T11:25:10.024Z,18.59
2023-05-10T11:28:13.807Z,18.51
2023-05-10T11:31:18.213Z,18.61
2023-05-10T11:34:28.433Z,18.28
2023-05-10T11:37:35.311Z,18.44
2023-05-10T11:40:39.236Z,19.15
2023-05-10T11:43:43.048Z,18.48
2023-05-10T11:46:46.098Z,18.10
2023-05-10T11:49:49.571Z,18.06
2023-05-10T11:52:56.500Z,18.50
2023-05-10T11:56:09.588Z,19.33
2023-05-10T11:59:15.906Z,20.14
2023-05-10T12:02:18.768Z,19.92
2023-05-10T12:05:21.963Z,19.95
2023-05-10T12:08:26.743Z,20.23
2023-05-10T12:11:30.976Z,20.42
2023-05-10T12:14:36.229Z,20.53
2023-05-10T12:17:41.949Z,20.76
2023-05-10T12:20:46.193Z,20.65
2023-05-10T12:23:53.673Z,19.74
2023-05-10T12:26:56.687Z,20.23
2023-05-10T12:30:00.990Z,19.64
2023-05-10T12:33:16.277Z,19.87
2023-05-10T12:36:25.158Z,19.54
2023-05-10T12:39:38.251Z,19.40
2023-05-10T12:42:41.665Z,19.36
2023-05-10T12:45:49.067Z,19.91
2023-05-10T12:49:07.636Z,19.54
2023-05-10T12:52:11.658Z,19.91
2023-05-10T12:55:14.603Z,19.97
2023-05-10T12:58:31.465Z,19.92
2023-05-10T13:01:38.227Z,20.24
2023-05-10T13:04:41.178Z,20.32
2023-05-10T13:07:45.008Z,20.11
2023-05-10T13:10:47.784Z,19.87
2023-05-10T13:13:50.621Z,19.88
2023-05-10T13:16:54.473Z,20.13
2023-05-10T13:19:58.045Z,20.34
2023-05-10T13:23:01.520Z,21.04
2023-05-10T13:26:04.530Z,21.44
2023-05-10T13:29:07.721Z,21.34
2023-05-10T13:32:10.456Z,20.96
2023-05-10T13:35:13.254Z,21.10
2023-05-10T13:38:15.959Z,21.81
2023-05-10T13:41:18.803Z,22.21
2023-05-10T13:44:21.740Z,21.96
2023-05-10T13:47:24.456Z,22.61
2023-05-10T13:50:28.073Z,22.86
2023-05-10T13:53:31.043Z,23.16
2023-05-10T13:56:35.744Z,22.14
2023-05-10T13:59:38.580Z,21.78
2023-05-10T14:02:41.950Z,20.47
2023-05-10T14:05:46.166Z,20.66
2023-05-10T14:08:48.978Z,20.32
2023-05-10T14:11:52.232Z,20.43
2023-05-10T14:14:54.915Z,19.87
2023-05-10T14:17:57.682Z,19.48
2023-05-10T14:21:00.648Z,19.81
2023-05-10T14:24:03.440Z,19.49
2023-05-10T14:27:07.152Z,19.81
2023-05-10T14:30:10.404Z,20.71
2023-05-10T14:33:13.589Z,21.87
2023-05-10T14:36:17.323Z,22.51
2023-05-10T14:39:20.518Z,21.42
2023-05-10T14:42:23.203Z,20.27
2023-05-10T14:45:25.915Z,21.08
2023-05-10T14:48:28.657Z,21.45
2023-05-10T14:51:31.385Z,21.97
2023-05-10T14:54:37.221Z,22.20
2023-05-10T14:57:40.149Z,21.44
2023-05-10T15:00:43.098Z,22.20
2023-05-10T15:03:46.352Z,20.95
2023-05-10T15:06:49.460Z,20.13
2023-05-10T15:09:52.976Z,20.07
2023-05-10T15:12:55.738Z,21.09
2023-05-10T15:15:58.514Z,20.16
2023-05-10T15:19:01.396Z,19.88
2023-05-10T15:22:06.105Z,19.94
2023-05-10T15:25:09.259Z,19.75
2023-05-10T15:28:11.960Z,19.66
2023-05-10T15:31:14.784Z,19.60
2023-05-10T15:34:18.979Z,19.45
2023-05-10T15:37:22.424Z,19.40
2023-05-10T15:40:25.124Z,19.46
2023-05-10T15:43:28.108Z,19.61
2023-05-10T15:46:31.643Z,19.48
2023-05-10T15:49:34.905Z,19.27
2023-05-10T15:52:37.732Z,19.61
2023-05-10T15:55:40.626Z,19.72
2023-05-10T15:58:44.174Z,19.62
2023-05-10T16:01:47.037Z,20.66
2023-05-10T16:04:49.739Z,20.98
2023-05-10T16:07:52.538Z,21.20
2023-05-10T16:10:55.246Z,20.79
2023-05-10T16:13:58.006Z,20.51
2023-05-10T16:17:00.867Z,20.00
2023-05-10T16:20:03.908Z,19.44
2023-05-10T16:23:07.806Z,19.36
2023-05-10T16:26:10.621Z,19.08
2023-05-10T16:29:13.384Z,19.08
2023-05-10T16:32:16.091Z,19.16
2023-05-10T16:35:18.945Z,19.19
2023-05-10T16:38:22.238Z,18.99
2023-05-10T16:41:24.982Z,18.84
2023-05-10T16:44:27.782Z,18.73
2023-05-10T16:47:30.508Z,18.59
2023-05-10T16:50:33.331Z,18.37
2023-05-10T16:53:36.493Z,18.28
2023-05-10T16:56:39.192Z,18.16
2023-05-10T16:59:41.971Z,18.12
2023-05-10T17:02:44.772Z,17.98
2023-05-10T17:05:47.618Z,17.85
2023-05-10T17:08:50.409Z,17.79
2023-05-10T17:11:53.134Z,17.59
2023-05-10T17:14:55.921Z,17.56
2023-05-10T17:17:58.767Z,17.53
2023-05-10T17:21:01.538Z,17.40
2023-05-10T17:24:04.337Z,17.25
2023-05-10T17:27:07.218Z,17.17
2023-05-10T17:30:10.345Z,17.07
2023-05-10T17:33:13.065Z,16.90
2023-05-10T17:36:15.790Z,16.82
2023-05-10T17:39:18.566Z,16.68
2023-05-10T17:42:21.414Z,16.56
2023-05-10T17:45:24.100Z,16.50
2023-05-10T17:48:26.847Z,16.44
2023-05-10T17:51:29.668Z,16.34
2023-05-10T17:54:32.412Z,16.21
2023-05-10T17:57:38.134Z,16.08
2023-05-10T18:00:41.009Z,16.08
2023-05-10T18:03:43.694Z,15.95
2023-05-10T18:06:46.360Z,15.89
2023-05-10T18:09:49.018Z,15.80
2023-05-10T18:12:52.493Z,15.64
2023-05-10T18:15:55.218Z,15.58
2023-05-10T18:18:58.250Z,15.52
2023-05-10T18:22:01.046Z,15.46
2023-05-10T18:25:04.695Z,15.37
2023-05-10T18:28:08.443Z,15.29
2023-05-10T18:31:11.266Z,15.26
2023-05-10T18:34:14.002Z,15.23
2023-05-10T18:37:17.098Z,15.09
2023-05-10T18:40:20.012Z,15.05
2023-05-10T18:43:22.760Z,15.04
2023-05-10T18:46:25.626Z,15.02
2023-05-10T18:49:29.492Z,14.96
2023-05-10T18:52:32.653Z,14.96
2023-05-10T18:55:35.384Z,14.87
2023-05-10T18:58:38.590Z,14.84
2023-05-10T19:01:41.916Z,14.85
2023-05-10T19:04:44.860Z,14.79
2023-05-10T19:07:47.893Z,14.73
2023-05-10T19:10:50.950Z,14.71
2023-05-10T19:13:53.614Z,14.70
2023-05-10T19:16:56.446Z,14.65
2023-05-10T19:20:00.136Z,14.62
2023-05-10T19:26:12.480Z,14.56
2023-05-10T19:29:15.308Z,14.47
2023-05-10T19:32:18.261Z,14.42
2023-05-10T19:35:21.394Z,14.37
2023-05-10T19:38:25.533Z,14.35
2023-05-10T19:41:28.742Z,14.33
2023-05-10T19:44:31.806Z,14.27
2023-05-10T19:47:36.388Z,14.23
2023-05-10T19:50:39.204Z,14.21
2023-05-10T19:53:44.875Z,14.14
2023-05-10T19:56:48.031Z,14.14
2023-05-10T19:59:50.782Z,14.12
2023-05-10T20:02:54.169Z,14.07
2023-05-10T20:05:57.476Z,14.04
2023-05-10T20:09:00.502Z,13.96
2023-05-10T20:12:03.420Z,13.84
2023-05-10T20:15:07.911Z,13.89
2023-05-10T20:18:11.067Z,13.90
2023-05-10T20:21:13.795Z,13.78
2023-05-10T20:24:16.512Z,13.81
2023-05-10T20:27:21.176Z,13.76
2023-05-10T20:30:24.170Z,13.75
2023-05-10T20:33:26.912Z,13.69
2023-05-10T20:36:30.286Z,13.61
2023-05-10T20:39:33.144Z,13.44
2023-05-10T20:42:36.233Z,13.49
2023-05-10T20:45:38.992Z,13.42
2023-05-10T20:48:41.732Z,13.34
2023-05-10T20:51:44.475Z,13.32
2023-05-10T20:54:47.145Z,13.28
2023-05-10T20:57:49.843Z,13.28
2023-05-10T21:00:52.558Z,13.27
2023-05-10T21:03:55.206Z,13.21
2023-05-10T21:06:58.029Z,13.18
2023-05-10T21:10:00.853Z,13.12
2023-05-10T21:13:03.628Z,13.03
2023-05-10T21:16:06.577Z,13.02
2023-05-10T21:19:09.380Z,12.98
2023-05-10T21:22:12.104Z,12.94
2023-05-10T21:25:14.790Z,12.88
2023-05-10T21:28:17.473Z,12.83
2023-05-10T21:31:20.370Z,12.77
2023-05-10T21:34:23.098Z,12.68
2023-05-10T21:37:25.833Z,12.64
2023-05-10T21:40:29.157Z,12.55
2023-05-10T21:43:31.869Z,12.52
2023-05-10T21:46:34.594Z,12.49
2023-05-10T21:49:37.310Z,12.47
2023-05-10T21:52:40.158Z,12.43
2023-05-10T21:55:42.821Z,12.41
2023-05-10T21:58:45.822Z,12.45
2023-05-10T22:01:48.697Z,12.42
2023-05-10T22:04:51.613Z,12.40
2023-05-10T22:07:54.286Z,12.37
2023-05-10T22:10:56.945Z,12.33
2023-05-10T22:13:59.721Z,12.31
2023-05-10T22:17:02.479Z,12.26
2023-05-10T22:20:07.448Z,12.19
2023-05-10T22:23:10.171Z,12.21
2023-05-10T22:26:12.989Z,12.20
2023-05-10T22:29:15.760Z,12.12
2023-05-10T22:32:18.625Z,12.14
2023-05-10T22:35:22.151Z,12.02
2023-05-10T22:38:24.833Z,12.06
2023-05-10T22:41:27.537Z,11.86
2023-05-10T22:44:30.285Z,11.92
2023-05-10T22:47:33.796Z,11.88
2023-05-10T22:50:37.254Z,11.86
2023-05-10T22:53:39.966Z,11.88
2023-05-10T22:56:42.782Z,11.87
2023-05-10T22:59:45.559Z,11.87
2023-05-10T23:02:48.338Z,11.86
2023-05-10T23:05:51.211Z,11.83
2023-05-10T23:08:54.825Z,11.78
2023-05-10T23:11:57.561Z,11.76
2023-05-10T23:15:00.210Z,11.69
2023-05-10T23:18:02.977Z,11.70
2023-05-10T23:21:06.105Z,11.69
2023-05-10T23:24:08.913Z,11.68
2023-05-10T23:27:11.687Z,11.67
2023-05-10T23:30:14.683Z,11.65
2023-05-10T23:33:17.398Z,11.53
2023-05-10T23:36:20.073Z,11.55
2023-05-10T23:39:22.786Z,11.60
2023-05-10T23:42:25.691Z,11.61
2023-05-10T23:45:28.485Z,11.63
2023-05-10T23:48:31.410Z,11.55
2023-05-10T23:51:34.187Z,11.57
2023-05-10T23:54:37.041Z,11.51
2023-05-10T23:57:40.015Z,11.52
